sensor_id;sensor_type;location;lat;lon;timestamp;temperature;humidity
21744;DHT22;11034;48.556;9.342;2024-01-27T01:14:43;1.00;99.90
21744;DHT22;11034;48.556;9.342;2024-01-27T01:17:12;1.00;99.90
21744;DHT22;11034;48.556;9.342;2024-01-27T01:19:40;0.90;99.90
21744;DHT22;11034;48.556;9.342;2024-01-27T01:22:08;0.90;99.90
21744;DHT22;11034;48.556;9.342;2024-01-27T01:24:39;0.80;99.90
21744;DHT22;11034;48.556;9.342;2024-01-27T01:27:07;0.80;99.90
21744;DHT22;11034;48.556;9.342;2024-01-27T01:29:35;0.80;99.90
21744;DHT22;11034;48.556;9.342;2024-01-27T01:32:05;0.90;99.90
21744;DHT22;11034;48.556;9.342;2024-01-27T01:34:33;0.90;99.90
21744;DHT22;11034;48.556;9.342;2024-01-27T01:37:03;1.00;99.90
21744;DHT22;11034;48.556;9.342;2024-01-27T01:39:31;1.00;99.90
21744;DHT22;11034;48.556;9.342;2024-01-27T01:41:59;0.90;99.90
21744;DHT22;11034;48.556;9.342;2024-01-27T01:44:30;0.80;99.90
21744;DHT22;11034;48.556;9.342;2024-01-27T01:46:58;0.70;99.90
21744;DHT22;11034;48.556;9.342;2024-01-27T01:49:28;0.70;99.90
21744;DHT22;11034;48.556;9.342;2024-01-27T01:51:56;0.60;99.90
21744;DHT22;11034;48.556;9.342;2024-01-27T01:54:25;0.60;99.90
21744;DHT22;11034;48.556;9.342;2024-01-27T01:56:55;0.60;99.90
21744;DHT22;11034;48.556;9.342;2024-01-27T01:59:25;0.60;99.90
21744;DHT22;11034;48.556;9.342;2024-01-27T02:01:54;0.60;99.90
21744;DHT22;11034;48.556;9.342;2024-01-27T02:04:22;0.60;99.90
21744;DHT22;11034;48.556;9.342;2024-01-27T02:06:52;0.50;99.90
21744;DHT22;11034;48.556;9.342;2024-01-27T02:09:20;0.50;99.90
21744;DHT22;11034;48.556;9.342;2024-01-27T02:11:48;0.50;99.90
21744;DHT22;11034;48.556;9.342;2024-01-27T02:14:16;0.50;99.90
21744;DHT22;11034;48.556;9.342;2024-01-27T02:16:45;0.60;99.90
21744;DHT22;11034;48.556;9.342;2024-01-27T02:19:13;0.50;99.90
21744;DHT22;11034;48.556;9.342;2024-01-27T02:21:41;0.50;99.90
21744;DHT22;11034;48.556;9.342;2024-01-27T02:24:10;0.50;99.90
21744;DHT22;11034;48.556;9.342;2024-01-27T02:26:38;0.50;99.90
21744;DHT22;11034;48.556;9.342;2024-01-27T02:29:06;0.40;99.90
21744;DHT22;11034;48.556;9.342;2024-01-27T02:31:34;0.50;99.90
21744;DHT22;11034;48.556;9.342;2024-01-27T02:34:02;0.60;99.90
21744;DHT22;11034;48.556;9.342;2024-01-27T02:36:31;0.60;99.90
21744;DHT22;11034;48.556;9.342;2024-01-27T02:38:59;0.60;99.90
21744;DHT22;11034;48.556;9.342;2024-01-27T02:41:28;0.70;99.90
21744;DHT22;11034;48.556;9.342;2024-01-27T02:43:56;0.70;99.90
21744;DHT22;11034;48.556;9.342;2024-01-27T02:46:24;0.70;99.90
21744;DHT22;11034;48.556;9.342;2024-01-27T02:48:52;0.80;99.90
21744;DHT22;11034;48.556;9.342;2024-01-27T02:51:21;0.80;99.90
21744;DHT22;11034;48.556;9.342;2024-01-27T02:53:49;0.80;99.90
21744;DHT22;11034;48.556;9.342;2024-01-27T02:56:17;0.70;99.90
21744;DHT22;11034;48.556;9.342;2024-01-27T02:58:47;0.60;99.90
21744;DHT22;11034;48.556;9.342;2024-01-27T03:01:15;0.60;99.90
21744;DHT22;11034;48.556;9.342;2024-01-27T03:03:43;0.60;99.90
21744;DHT22;11034;48.556;9.342;2024-01-27T03:06:11;0.60;99.90
21744;DHT22;11034;48.556;9.342;2024-01-27T03:08:39;0.60;99.90
21744;DHT22;11034;48.556;9.342;2024-01-27T03:11:07;0.60;99.90
21744;DHT22;11034;48.556;9.342;2024-01-27T03:13:35;0.70;99.90
21744;DHT22;11034;48.556;9.342;2024-01-27T03:16:08;0.70;99.90
21744;DHT22;11034;48.556;9.342;2024-01-27T03:18:37;0.70;99.90
21744;DHT22;11034;48.556;9.342;2024-01-27T03:21:06;0.80;99.90
21744;DHT22;11034;48.556;9.342;2024-01-27T03:23:34;0.90;99.90
21744;DHT22;11034;48.556;9.342;2024-01-27T03:26:03;1.00;99.90
21744;DHT22;11034;48.556;9.342;2024-01-27T03:28:32;1.10;99.90
21744;DHT22;11034;48.556;9.342;2024-01-27T03:31:00;1.20;99.90
21744;DHT22;11034;48.556;9.342;2024-01-27T03:33:29;1.20;99.90
21744;DHT22;11034;48.556;9.342;2024-01-27T03:35:57;1.30;99.90
21744;DHT22;11034;48.556;9.342;2024-01-27T03:38:26;1.40;99.90
21744;DHT22;11034;48.556;9.342;2024-01-27T03:40:54;1.50;99.90
21744;DHT22;11034;48.556;9.342;2024-01-27T03:43:22;1.50;99.90
21744;DHT22;11034;48.556;9.342;2024-01-27T03:45:50;1.50;99.90
21744;DHT22;11034;48.556;9.342;2024-01-27T03:48:18;1.60;99.90
21744;DHT22;11034;48.556;9.342;2024-01-27T03:50:48;1.70;99.90
21744;DHT22;11034;48.556;9.342;2024-01-27T03:53:16;1.70;99.90
21744;DHT22;11034;48.556;9.342;2024-01-27T03:55:44;1.70;99.90
21744;DHT22;11034;48.556;9.342;2024-01-27T03:58:12;1.80;99.90
21744;DHT22;11034;48.556;9.342;2024-01-27T04:00:40;1.80;99.90
21744;DHT22;11034;48.556;9.342;2024-01-27T04:03:12;1.80;99.90
21744;DHT22;11034;48.556;9.342;2024-01-27T04:05:40;1.80;99.90
21744;DHT22;11034;48.556;9.342;2024-01-27T04:08:09;1.80;99.90
21744;DHT22;11034;48.556;9.342;2024-01-27T04:10:37;1.90;99.90
21744;DHT22;11034;48.556;9.342;2024-01-27T04:13:05;1.90;99.90
21744;DHT22;11034;48.556;9.342;2024-01-27T04:15:33;1.90;99.90
21744;DHT22;11034;48.556;9.342;2024-01-27T04:18:05;1.80;99.90
21744;DHT22;11034;48.556;9.342;2024-01-27T04:20:35;1.80;99.90
21744;DHT22;11034;48.556;9.342;2024-01-27T04:23:03;1.80;99.90
21744;DHT22;11034;48.556;9.342;2024-01-27T04:25:33;1.80;99.90
21744;DHT22;11034;48.556;9.342;2024-01-27T04:28:01;1.80;99.90
21744;DHT22;11034;48.556;9.342;2024-01-27T04:30:30;1.80;99.90
21744;DHT22;11034;48.556;9.342;2024-01-27T04:32:58;1.70;99.90
21744;DHT22;11034;48.556;9.342;2024-01-27T04:35:26;1.70;99.90
21744;DHT22;11034;48.556;9.342;2024-01-27T04:37:54;1.60;99.90
21744;DHT22;11034;48.556;9.342;2024-01-27T04:40:22;1.60;99.90
21744;DHT22;11034;48.556;9.342;2024-01-27T04:42:52;1.50;99.90
21744;DHT22;11034;48.556;9.342;2024-01-27T04:45:20;1.40;99.90
21744;DHT22;11034;48.556;9.342;2024-01-27T04:47:48;1.30;99.90
21744;DHT22;11034;48.556;9.342;2024-01-27T04:50:17;1.20;99.90
21744;DHT22;11034;48.556;9.342;2024-01-27T04:52:45;1.20;99.90
21744;DHT22;11034;48.556;9.342;2024-01-27T04:55:13;1.10;99.90
21744;DHT22;11034;48.556;9.342;2024-01-27T04:57:41;1.00;99.90
21744;DHT22;11034;48.556;9.342;2024-01-27T05:00:13;1.00;99.90
21744;DHT22;11034;48.556;9.342;2024-01-27T05:02:41;0.90;99.90
21744;DHT22;11034;48.556;9.342;2024-01-27T05:05:09;0.80;99.90
21744;DHT22;11034;48.556;9.342;2024-01-27T05:07:38;0.70;99.90
21744;DHT22;11034;48.556;9.342;2024-01-27T05:10:10;0.70;99.90
21744;DHT22;11034;48.556;9.342;2024-01-27T05:12:38;0.60;99.90
21744;DHT22;11034;48.556;9.342;2024-01-27T05:15:07;0.60;99.90
21744;DHT22;11034;48.556;9.342;2024-01-27T05:17:37;0.50;99.90
21744;DHT22;11034;48.556;9.342;2024-01-27T05:20:06;0.50;99.90
21744;DHT22;11034;48.556;9.342;2024-01-27T05:22:35;0.50;99.90
21744;DHT22;11034;48.556;9.342;2024-01-27T05:25:03;0.50;99.90
21744;DHT22;11034;48.556;9.342;2024-01-27T05:27:31;0.40;99.90
21744;DHT22;11034;48.556;9.342;2024-01-27T05:29:59;0.40;99.90
21744;DHT22;11034;48.556;9.342;2024-01-27T05:32:27;0.30;99.90
21744;DHT22;11034;48.556;9.342;2024-01-27T05:34:57;0.30;99.90
21744;DHT22;11034;48.556;9.342;2024-01-27T05:37:26;0.30;99.90
21744;DHT22;11034;48.556;9.342;2024-01-27T05:39:55;0.20;99.90
21744;DHT22;11034;48.556;9.342;2024-01-27T05:42:23;0.20;99.90
21744;DHT22;11034;48.556;9.342;2024-01-27T05:44:51;0.20;99.90
21744;DHT22;11034;48.556;9.342;2024-01-27T05:47:19;0.10;99.90
21744;DHT22;11034;48.556;9.342;2024-01-27T05:49:47;0.10;99.90
21744;DHT22;11034;48.556;9.342;2024-01-27T05:52:17;0.00;99.90
21744;DHT22;11034;48.556;9.342;2024-01-27T05:54:51;0.00;99.90
21744;DHT22;11034;48.556;9.342;2024-01-27T05:57:20;0.00;99.90
21744;DHT22;11034;48.556;9.342;2024-01-27T05:59:48;0.00;99.90
21744;DHT22;11034;48.556;9.342;2024-01-27T06:02:16;-0.10;99.90
21744;DHT22;11034;48.556;9.342;2024-01-27T06:04:45;-0.20;99.90
21744;DHT22;11034;48.556;9.342;2024-01-27T06:07:13;-0.30;99.90
21744;DHT22;11034;48.556;9.342;2024-01-27T06:09:43;-0.40;99.90
21744;DHT22;11034;48.556;9.342;2024-01-27T06:12:11;-0.40;99.90
21744;DHT22;11034;48.556;9.342;2024-01-27T06:14:41;-0.50;99.90
21744;DHT22;11034;48.556;9.342;2024-01-27T06:17:09;-0.50;99.90
21744;DHT22;11034;48.556;9.342;2024-01-27T06:19:39;-0.60;99.90
21744;DHT22;11034;48.556;9.342;2024-01-27T06:22:07;-0.60;99.90
21744;DHT22;11034;48.556;9.342;2024-01-27T06:24:43;-0.60;99.90
21744;DHT22;11034;48.556;9.342;2024-01-27T06:27:11;-0.50;99.90
21744;DHT22;11034;48.556;9.342;2024-01-27T06:29:39;-0.50;99.90
21744;DHT22;11034;48.556;9.342;2024-01-27T06:32:09;-0.60;99.90
21744;DHT22;11034;48.556;9.342;2024-01-27T06:34:39;-0.60;99.90
21744;DHT22;11034;48.556;9.342;2024-01-27T06:37:07;-0.60;99.90
21744;DHT22;11034;48.556;9.342;2024-01-27T06:39:35;-0.60;99.90
21744;DHT22;11034;48.556;9.342;2024-01-27T06:42:05;-0.60;99.90
21744;DHT22;11034;48.556;9.342;2024-01-27T06:44:33;-0.60;99.90
21744;DHT22;11034;48.556;9.342;2024-01-27T06:47:01;-0.60;99.90
21744;DHT22;11034;48.556;9.342;2024-01-27T06:49:30;-0.60;99.90
21744;DHT22;11034;48.556;9.342;2024-01-27T06:51:58;-0.60;99.90
21744;DHT22;11034;48.556;9.342;2024-01-27T06:54:27;-0.40;99.90
21744;DHT22;11034;48.556;9.342;2024-01-27T06:56:55;-0.40;99.90
21744;DHT22;11034;48.556;9.342;2024-01-27T06:59:24;-0.50;99.90
21744;DHT22;11034;48.556;9.342;2024-01-27T07:01:52;-0.50;99.90
21744;DHT22;11034;48.556;9.342;2024-01-27T07:04:22;-0.50;99.90
21744;DHT22;11034;48.556;9.342;2024-01-27T07:06:51;-0.50;99.90
21744;DHT22;11034;48.556;9.342;2024-01-27T07:09:19;-0.60;99.90
21744;DHT22;11034;48.556;9.342;2024-01-27T07:11:47;-0.60;99.90
21744;DHT22;11034;48.556;9.342;2024-01-27T07:14:19;-0.60;99.90
21744;DHT22;11034;48.556;9.342;2024-01-27T07:16:48;-0.60;99.90
21744;DHT22;11034;48.556;9.342;2024-01-27T07:19:17;-0.60;99.90
21744;DHT22;11034;48.556;9.342;2024-01-27T07:21:45;-0.60;99.90
21744;DHT22;11034;48.556;9.342;2024-01-27T07:24:13;-0.60;99.90
21744;DHT22;11034;48.556;9.342;2024-01-27T07:26:41;-0.60;99.90
21744;DHT22;11034;48.556;9.342;2024-01-27T07:29:09;-0.60;99.90
21744;DHT22;11034;48.556;9.342;2024-01-27T07:31:39;-0.40;99.90
21744;DHT22;11034;48.556;9.342;2024-01-27T07:34:08;0.30;99.90
21744;DHT22;11034;48.556;9.342;2024-01-27T07:36:36;0.30;99.90
21744;DHT22;11034;48.556;9.342;2024-01-27T07:39:05;0.20;99.90
21744;DHT22;11034;48.556;9.342;2024-01-27T07:41:33;0.10;99.90
21744;DHT22;11034;48.556;9.342;2024-01-27T07:44:07;0.00;99.90
21744;DHT22;11034;48.556;9.342;2024-01-27T07:46:37;-0.10;99.90
21744;DHT22;11034;48.556;9.342;2024-01-27T07:49:05;-0.10;99.90
21744;DHT22;11034;48.556;9.342;2024-01-27T07:51:35;0.00;99.90
21744;DHT22;11034;48.556;9.342;2024-01-27T07:54:04;-0.10;99.90
21744;DHT22;11034;48.556;9.342;2024-01-27T07:56:33;-0.10;99.90
21744;DHT22;11034;48.556;9.342;2024-01-27T07:59:01;-0.10;99.90
21744;DHT22;11034;48.556;9.342;2024-01-27T08:01:29;-0.10;99.90
21744;DHT22;11034;48.556;9.342;2024-01-27T08:03:57;-0.10;99.90
21744;DHT22;11034;48.556;9.342;2024-01-27T08:06:28;0.00;99.90
21744;DHT22;11034;48.556;9.342;2024-01-27T08:08:58;0.00;99.90
21744;DHT22;11034;48.556;9.342;2024-01-27T08:11:26;0.00;99.90
21744;DHT22;11034;48.556;9.342;2024-01-27T08:13:57;0.10;99.90
21744;DHT22;11034;48.556;9.342;2024-01-27T08:16:26;0.10;99.90
21744;DHT22;11034;48.556;9.342;2024-01-27T08:18:54;0.10;99.90
21744;DHT22;11034;48.556;9.342;2024-01-27T08:21:22;0.20;99.90
21744;DHT22;11034;48.556;9.342;2024-01-27T08:23:50;0.30;99.90
21744;DHT22;11034;48.556;9.342;2024-01-27T08:26:20;0.30;99.90
21744;DHT22;11034;48.556;9.342;2024-01-27T08:28:49;0.30;99.90
21744;DHT22;11034;48.556;9.342;2024-01-27T08:31:17;0.40;99.90
21744;DHT22;11034;48.556;9.342;2024-01-27T08:33:45;0.50;99.90
21744;DHT22;11034;48.556;9.342;2024-01-27T08:36:13;0.50;99.90
21744;DHT22;11034;48.556;9.342;2024-01-27T08:38:42;0.60;99.90
21744;DHT22;11034;48.556;9.342;2024-01-27T08:41:10;0.60;99.90
21744;DHT22;11034;48.556;9.342;2024-01-27T08:43:39;0.70;99.90
21744;DHT22;11034;48.556;9.342;2024-01-27T08:46:07;0.80;99.90
21744;DHT22;11034;48.556;9.342;2024-01-27T08:48:38;0.90;99.90
21744;DHT22;11034;48.556;9.342;2024-01-27T08:51:08;1.00;99.90
21744;DHT22;11034;48.556;9.342;2024-01-27T08:53:37;1.30;99.90
21744;DHT22;11034;48.556;9.342;2024-01-27T08:56:05;1.50;99.90
21744;DHT22;11034;48.556;9.342;2024-01-27T08:58:33;1.60;99.90
21744;DHT22;11034;48.556;9.342;2024-01-27T09:01:03;1.70;99.90
21744;DHT22;11034;48.556;9.342;2024-01-27T09:03:34;1.90;99.90
21744;DHT22;11034;48.556;9.342;2024-01-27T09:06:03;2.00;99.90
21744;DHT22;11034;48.556;9.342;2024-01-27T09:08:31;2.00;99.90
21744;DHT22;11034;48.556;9.342;2024-01-27T09:10:59;2.10;99.90
21744;DHT22;11034;48.556;9.342;2024-01-27T09:13:28;2.20;99.90
21744;DHT22;11034;48.556;9.342;2024-01-27T09:15:57;2.30;99.90
21744;DHT22;11034;48.556;9.342;2024-01-27T09:18:27;2.40;99.90
21744;DHT22;11034;48.556;9.342;2024-01-27T09:20:55;2.50;99.90
21744;DHT22;11034;48.556;9.342;2024-01-27T09:23:23;2.60;99.90
21744;DHT22;11034;48.556;9.342;2024-01-27T09:25:52;2.70;99.90
21744;DHT22;11034;48.556;9.342;2024-01-27T09:28:20;2.70;99.90
21744;DHT22;11034;48.556;9.342;2024-01-27T09:30:48;2.70;99.90
21744;DHT22;11034;48.556;9.342;2024-01-27T09:33:17;2.70;99.90
21744;DHT22;11034;48.556;9.342;2024-01-27T09:35:48;2.70;99.90
21744;DHT22;11034;48.556;9.342;2024-01-27T09:38:16;2.80;99.90
21744;DHT22;11034;48.556;9.342;2024-01-27T09:40:46;2.70;99.90
21744;DHT22;11034;48.556;9.342;2024-01-27T09:43:16;2.70;99.90
21744;DHT22;11034;48.556;9.342;2024-01-27T09:45:45;2.60;99.90
21744;DHT22;11034;48.556;9.342;2024-01-27T09:48:14;2.60;99.90
21744;DHT22;11034;48.556;9.342;2024-01-27T09:50:43;2.60;99.90
21744;DHT22;11034;48.556;9.342;2024-01-27T09:53:13;2.50;99.90
21744;DHT22;11034;48.556;9.342;2024-01-27T09:55:41;2.50;99.90
21744;DHT22;11034;48.556;9.342;2024-01-27T09:58:11;2.60;99.90
21744;DHT22;11034;48.556;9.342;2024-01-27T10:00:42;2.60;99.90
21744;DHT22;11034;48.556;9.342;2024-01-27T10:03:11;2.60;99.90
21744;DHT22;11034;48.556;9.342;2024-01-27T10:05:41;2.60;99.90
21744;DHT22;11034;48.556;9.342;2024-01-27T10:08:10;2.60;99.90
21744;DHT22;11034;48.556;9.342;2024-01-27T10:10:39;2.60;99.90
21744;DHT22;11034;48.556;9.342;2024-01-27T10:13:09;2.70;99.90
21744;DHT22;11034;48.556;9.342;2024-01-27T10:15:38;2.70;99.90
21744;DHT22;11034;48.556;9.342;2024-01-27T10:18:07;2.70;99.90
21744;DHT22;11034;48.556;9.342;2024-01-27T10:20:35;2.70;99.90
21744;DHT22;11034;48.556;9.342;2024-01-27T10:23:13;2.60;99.90
21744;DHT22;11034;48.556;9.342;2024-01-27T10:25:43;2.70;99.90
21744;DHT22;11034;48.556;9.342;2024-01-27T10:28:12;2.80;99.90
21744;DHT22;11034;48.556;9.342;2024-01-27T10:30:40;2.80;99.90
21744;DHT22;11034;48.556;9.342;2024-01-27T10:33:08;2.80;99.90
21744;DHT22;11034;48.556;9.342;2024-01-27T10:35:37;2.90;99.90
21744;DHT22;11034;48.556;9.342;2024-01-27T10:38:05;2.90;99.90
21744;DHT22;11034;48.556;9.342;2024-01-27T10:40:35;2.90;99.90
21744;DHT22;11034;48.556;9.342;2024-01-27T10:43:06;2.90;99.90
21744;DHT22;11034;48.556;9.342;2024-01-27T10:45:36;3.00;99.90
21744;DHT22;11034;48.556;9.342;2024-01-27T10:48:06;3.10;99.90
21744;DHT22;11034;48.556;9.342;2024-01-27T10:50:36;3.20;99.90
21744;DHT22;11034;48.556;9.342;2024-01-27T10:53:21;3.20;99.90
21744;DHT22;11034;48.556;9.342;2024-01-27T10:55:51;3.20;99.90
21744;DHT22;11034;48.556;9.342;2024-01-27T10:58:23;3.40;99.90
21744;DHT22;11034;48.556;9.342;2024-01-27T11:00:52;3.50;99.90
21744;DHT22;11034;48.556;9.342;2024-01-27T11:03:22;3.50;99.90
21744;DHT22;11034;48.556;9.342;2024-01-27T11:05:52;3.60;99.90
21744;DHT22;11034;48.556;9.342;2024-01-27T11:08:23;3.70;99.90
21744;DHT22;11034;48.556;9.342;2024-01-27T11:10:56;3.80;99.90
21744;DHT22;11034;48.556;9.342;2024-01-27T11:13:27;3.80;99.90
21744;DHT22;11034;48.556;9.342;2024-01-27T11:15:56;3.90;99.90
21744;DHT22;11034;48.556;9.342;2024-01-27T11:18:25;3.90;99.90
21744;DHT22;11034;48.556;9.342;2024-01-27T11:20:54;4.00;99.90
21744;DHT22;11034;48.556;9.342;2024-01-27T11:23:31;4.00;99.90
21744;DHT22;11034;48.556;9.342;2024-01-27T11:26:04;4.00;99.90
21744;DHT22;11034;48.556;9.342;2024-01-27T11:28:34;4.00;99.90
21744;DHT22;11034;48.556;9.342;2024-01-27T11:31:03;4.10;99.90
21744;DHT22;11034;48.556;9.342;2024-01-27T11:33:32;4.10;99.90
21744;DHT22;11034;48.556;9.342;2024-01-27T11:36:01;4.20;99.90
21744;DHT22;11034;48.556;9.342;2024-01-27T11:38:30;4.20;99.90
21744;DHT22;11034;48.556;9.342;2024-01-27T11:40:59;4.20;99.90
21744;DHT22;11034;48.556;9.342;2024-01-27T11:43:28;4.20;99.90
21744;DHT22;11034;48.556;9.342;2024-01-27T11:45:58;4.30;99.90
21744;DHT22;11034;48.556;9.342;2024-01-27T11:48:27;4.30;99.90
21744;DHT22;11034;48.556;9.342;2024-01-27T11:51:05;4.30;99.90
21744;DHT22;11034;48.556;9.342;2024-01-27T11:53:35;4.40;99.90
21744;DHT22;11034;48.556;9.342;2024-01-27T11:56:03;4.40;99.90
21744;DHT22;11034;48.556;9.342;2024-01-27T11:58:32;4.50;99.90
21744;DHT22;11034;48.556;9.342;2024-01-27T12:01:01;4.60;99.90
21744;DHT22;11034;48.556;9.342;2024-01-27T12:03:30;4.60;99.90
21744;DHT22;11034;48.556;9.342;2024-01-27T12:05:58;4.70;99.90
21744;DHT22;11034;48.556;9.342;2024-01-27T12:08:26;4.70;99.90
21744;DHT22;11034;48.556;9.342;2024-01-27T12:10:55;4.80;99.90
21744;DHT22;11034;48.556;9.342;2024-01-27T12:13:24;4.80;99.90
21744;DHT22;11034;48.556;9.342;2024-01-27T12:15:52;4.80;99.90
21744;DHT22;11034;48.556;9.342;2024-01-27T12:18:21;4.80;99.90
21744;DHT22;11034;48.556;9.342;2024-01-27T12:20:55;4.80;99.90
21744;DHT22;11034;48.556;9.342;2024-01-27T12:23:23;4.90;99.90
21744;DHT22;11034;48.556;9.342;2024-01-27T12:25:55;5.00;99.90
21744;DHT22;11034;48.556;9.342;2024-01-27T12:28:23;5.00;99.90
21744;DHT22;11034;48.556;9.342;2024-01-27T12:30:52;5.10;99.90
21744;DHT22;11034;48.556;9.342;2024-01-27T12:33:22;5.20;99.90
21744;DHT22;11034;48.556;9.342;2024-01-27T12:35:52;5.20;99.90
21744;DHT22;11034;48.556;9.342;2024-01-27T12:38:22;5.30;99.90
21744;DHT22;11034;48.556;9.342;2024-01-27T12:40:50;5.20;99.90
21744;DHT22;11034;48.556;9.342;2024-01-27T12:43:18;5.40;99.90
21744;DHT22;11034;48.556;9.342;2024-01-27T12:45:47;5.50;99.90
21744;DHT22;11034;48.556;9.342;2024-01-27T12:48:15;5.50;99.90
21744;DHT22;11034;48.556;9.342;2024-01-27T12:50:45;5.50;99.90
21744;DHT22;11034;48.556;9.342;2024-01-27T12:53:17;5.50;99.90
21744;DHT22;11034;48.556;9.342;2024-01-27T12:55:48;5.60;99.90
21744;DHT22;11034;48.556;9.342;2024-01-27T12:58:16;5.60;99.90
21744;DHT22;11034;48.556;9.342;2024-01-27T13:00:45;5.60;99.90
21744;DHT22;11034;48.556;9.342;2024-01-27T13:03:13;5.60;99.90
21744;DHT22;11034;48.556;9.342;2024-01-27T13:05:41;5.60;99.90
21744;DHT22;11034;48.556;9.342;2024-01-27T13:08:11;5.60;99.90
21744;DHT22;11034;48.556;9.342;2024-01-27T13:10:39;5.60;99.90
21744;DHT22;11034;48.556;9.342;2024-01-27T13:13:07;5.60;99.90
21744;DHT22;11034;48.556;9.342;2024-01-27T13:15:36;5.70;99.90
21744;DHT22;11034;48.556;9.342;2024-01-27T13:18:04;5.70;99.90
21744;DHT22;11034;48.556;9.342;2024-01-27T13:20:33;5.70;99.90
21744;DHT22;11034;48.556;9.342;2024-01-27T13:23:01;5.70;99.90
21744;DHT22;11034;48.556;9.342;2024-01-27T13:25:30;5.60;99.90
21744;DHT22;11034;48.556;9.342;2024-01-27T13:27:59;5.60;99.90
21744;DHT22;11034;48.556;9.342;2024-01-27T13:30:27;5.60;99.90
21744;DHT22;11034;48.556;9.342;2024-01-27T13:32:55;5.50;99.90
21744;DHT22;11034;48.556;9.342;2024-01-27T13:35:26;5.50;99.90
21744;DHT22;11034;48.556;9.342;2024-01-27T13:37:54;5.50;99.90
21744;DHT22;11034;48.556;9.342;2024-01-27T13:40:22;5.40;99.90
21744;DHT22;11034;48.556;9.342;2024-01-27T13:42:53;5.40;99.90
21744;DHT22;11034;48.556;9.342;2024-01-27T13:45:22;5.40;99.90
21744;DHT22;11034;48.556;9.342;2024-01-27T13:47:50;5.40;99.90
21744;DHT22;11034;48.556;9.342;2024-01-27T13:50:18;5.40;99.90
21744;DHT22;11034;48.556;9.342;2024-01-27T13:52:47;5.40;99.90
21744;DHT22;11034;48.556;9.342;2024-01-27T13:55:15;5.40;99.90
21744;DHT22;11034;48.556;9.342;2024-01-27T13:57:43;5.40;99.90
21744;DHT22;11034;48.556;9.342;2024-01-27T14:00:14;5.40;99.90
21744;DHT22;11034;48.556;9.342;2024-01-27T14:02:43;5.60;99.90
21744;DHT22;11034;48.556;9.342;2024-01-27T14:05:11;5.70;99.90
21744;DHT22;11034;48.556;9.342;2024-01-27T14:07:39;5.70;99.90
21744;DHT22;11034;48.556;9.342;2024-01-27T14:10:08;5.80;99.90
21744;DHT22;11034;48.556;9.342;2024-01-27T14:12:36;5.80;99.90
21744;DHT22;11034;48.556;9.342;2024-01-27T14:15:05;5.90;99.90
21744;DHT22;11034;48.556;9.342;2024-01-27T14:17:36;5.90;99.90
21744;DHT22;11034;48.556;9.342;2024-01-27T14:20:06;6.00;99.90
21744;DHT22;11034;48.556;9.342;2024-01-27T14:22:36;6.00;99.90
21744;DHT22;11034;48.556;9.342;2024-01-27T14:25:05;5.90;99.90
21744;DHT22;11034;48.556;9.342;2024-01-27T14:27:34;5.80;99.90
21744;DHT22;11034;48.556;9.342;2024-01-27T14:30:03;5.60;99.90
21744;DHT22;11034;48.556;9.342;2024-01-27T14:32:31;5.50;99.90
21744;DHT22;11034;48.556;9.342;2024-01-27T14:35:01;5.30;99.90
21744;DHT22;11034;48.556;9.342;2024-01-27T14:37:32;5.20;99.90
21744;DHT22;11034;48.556;9.342;2024-01-27T14:40:01;5.20;99.90
21744;DHT22;11034;48.556;9.342;2024-01-27T14:42:31;5.10;99.90
21744;DHT22;11034;48.556;9.342;2024-01-27T14:45:02;5.00;99.90
21744;DHT22;11034;48.556;9.342;2024-01-27T14:47:30;4.90;99.90
21744;DHT22;11034;48.556;9.342;2024-01-27T14:50:00;4.80;99.90
21744;DHT22;11034;48.556;9.342;2024-01-27T14:52:28;4.80;99.90
21744;DHT22;11034;48.556;9.342;2024-01-27T14:54:56;4.70;99.90
21744;DHT22;11034;48.556;9.342;2024-01-27T14:57:25;4.60;99.90
21744;DHT22;11034;48.556;9.342;2024-01-27T14:59:53;4.50;99.90
21744;DHT22;11034;48.556;9.342;2024-01-27T15:02:21;4.40;99.90
21744;DHT22;11034;48.556;9.342;2024-01-27T15:04:54;4.30;99.90
21744;DHT22;11034;48.556;9.342;2024-01-27T15:07:24;4.40;99.90
21744;DHT22;11034;48.556;9.342;2024-01-27T15:09:56;4.20;99.90
21744;DHT22;11034;48.556;9.342;2024-01-27T15:12:24;4.10;99.90
21744;DHT22;11034;48.556;9.342;2024-01-27T15:14:53;3.90;99.90
21744;DHT22;11034;48.556;9.342;2024-01-27T15:17:21;3.70;99.90
21744;DHT22;11034;48.556;9.342;2024-01-27T15:19:52;3.60;99.90
21744;DHT22;11034;48.556;9.342;2024-01-27T15:22:20;3.50;99.90
21744;DHT22;11034;48.556;9.342;2024-01-27T15:24:50;3.30;99.90
21744;DHT22;11034;48.556;9.342;2024-01-27T15:27:20;3.30;99.90
21744;DHT22;11034;48.556;9.342;2024-01-27T15:29:48;3.20;99.90
21744;DHT22;11034;48.556;9.342;2024-01-27T15:32:19;3.10;99.90
21744;DHT22;11034;48.556;9.342;2024-01-27T15:34:50;3.00;99.90
21744;DHT22;11034;48.556;9.342;2024-01-27T15:37:19;2.90;99.90
21744;DHT22;11034;48.556;9.342;2024-01-27T15:39:47;2.80;99.90
21744;DHT22;11034;48.556;9.342;2024-01-27T15:42:18;2.80;99.90
21744;DHT22;11034;48.556;9.342;2024-01-27T15:44:46;2.70;99.90
21744;DHT22;11034;48.556;9.342;2024-01-27T15:47:14;2.60;99.90
21744;DHT22;11034;48.556;9.342;2024-01-27T15:49:42;2.50;99.90
21744;DHT22;11034;48.556;9.342;2024-01-27T15:52:11;2.40;99.90
21744;DHT22;11034;48.556;9.342;2024-01-27T15:54:41;2.40;99.90
21744;DHT22;11034;48.556;9.342;2024-01-27T15:57:11;2.20;99.90
21744;DHT22;11034;48.556;9.342;2024-01-27T15:59:40;2.20;99.90
21744;DHT22;11034;48.556;9.342;2024-01-27T16:02:08;2.10;99.90
21744;DHT22;11034;48.556;9.342;2024-01-27T16:04:36;2.10;99.90
21744;DHT22;11034;48.556;9.342;2024-01-27T16:07:12;2.00;99.90
21744;DHT22;11034;48.556;9.342;2024-01-27T16:09:54;2.00;99.90
21744;DHT22;11034;48.556;9.342;2024-01-27T16:12:28;1.90;99.90
21744;DHT22;11034;48.556;9.342;2024-01-27T16:14:57;1.80;99.90
21744;DHT22;11034;48.556;9.342;2024-01-27T16:17:26;1.80;99.90
21744;DHT22;11034;48.556;9.342;2024-01-27T16:19:54;1.70;99.90
21744;DHT22;11034;48.556;9.342;2024-01-27T16:22:22;1.90;99.90
21744;DHT22;11034;48.556;9.342;2024-01-27T16:24:51;1.80;99.90
21744;DHT22;11034;48.556;9.342;2024-01-27T16:27:21;1.80;99.90
21744;DHT22;11034;48.556;9.342;2024-01-27T16:29:58;2.00;99.90
21744;DHT22;11034;48.556;9.342;2024-01-27T16:32:26;1.90;99.90
21744;DHT22;11034;48.556;9.342;2024-01-27T16:34:55;1.80;99.90
21744;DHT22;11034;48.556;9.342;2024-01-27T16:37:23;1.70;99.90
21744;DHT22;11034;48.556;9.342;2024-01-27T16:39:51;1.70;99.90
21744;DHT22;11034;48.556;9.342;2024-01-27T16:42:19;1.60;99.90
21744;DHT22;11034;48.556;9.342;2024-01-27T16:44:48;1.50;99.90
21744;DHT22;11034;48.556;9.342;2024-01-27T16:47:18;1.40;99.90
21744;DHT22;11034;48.556;9.342;2024-01-27T16:49:48;1.40;99.90
21744;DHT22;11034;48.556;9.342;2024-01-27T16:52:16;1.40;99.90
21744;DHT22;11034;48.556;9.342;2024-01-27T16:54:44;1.50;99.90
21744;DHT22;11034;48.556;9.342;2024-01-27T16:57:12;1.40;99.90
21744;DHT22;11034;48.556;9.342;2024-01-27T16:59:40;1.30;99.90
21744;DHT22;11034;48.556;9.342;2024-01-27T17:02:08;1.30;99.90
21744;DHT22;11034;48.556;9.342;2024-01-27T17:04:38;1.30;99.90
21744;DHT22;11034;48.556;9.342;2024-01-27T17:07:07;1.30;99.90
21744;DHT22;11034;48.556;9.342;2024-01-27T17:09:35;1.30;99.90